UEEE Airport Information

Runway Information
Runway 05L Length 8202 ft width 161 ft
Elevation 322 ft Threshold 0 ft Heading 30
Runway 23R Length 8202 ft Width 161 ft
Elevation 318 ft Threshold 3400 ft Heading 210
Runway 05R Length 11155 ft width 197 ft
Elevation 322 ft Threshold 2965 ft Heading 37
Runway 23L Length 11155 ft Width 197 ft
Elevation 315 ft Threshold 0 ft Heading 217
Airport Frequencies
Type APP Name APP Frequency 129.3 MHZ
Type ATIS Name ATIS Frequency 126.2 MHZ
Type GND Name GND Frequency 121.7 MHZ
Type RDR Name ASR Frequency 120.3 MHZ
Type TWR Name TWR Frequency 120 MHZ
Airport Navaids
Type NDB Name Yakutsk Frequency 334 KHZ
Type NDB Name Yakutsk Frequency 290 KHZ
Type NDB Name Yakutsk Frequency 334 KHZ
Airport Weather Information & NOTAM
ADDS - METARS form results

(0052 UTC 23 April 2019)
Data provider http://aviationweather.gov/metar/data/
 
METAR text: UEEE 230030Z 03002MPS 360V070 CAVOK 03/M05 Q1010 R23L/09//60 NOSIG RMK QFE749
Conditions at: UEEE (YAKUTSK , RU) observed 0030 UTC 23 April 2019
Temperature: 3.0°C (37°F)
Dewpoint: -5.0°C (23°F) [RH = 56%]
Pressure (altimeter): 29.82 inches Hg (1010.0 mb)
Winds: from the NNE (30 degrees) at 5 MPH (4 knots; 2.1 m/s)
Visibility: 6 or more miles (10+ km)
Ceiling: ceiling and visibility are OK
Clouds: unknown
Weather: no significant weather observed at this time

METAR text: UEEE 230000Z 05001MPS CAVOK 02/M04 Q1010 R23L/09//60 NOSIG RMK QFE749
Conditions at: UEEE (YAKUTSK , RU) observed 0000 UTC 23 April 2019
Temperature: 2.0°C (36°F)
Dewpoint: -4.0°C (25°F) [RH = 64%]
Pressure (altimeter): 29.82 inches Hg (1010.0 mb)
Winds: from the NE (50 degrees) at 2 MPH (2 knots; 1.0 m/s)
Visibility: 6 or more miles (10+ km)
Ceiling: ceiling and visibility are OK
Clouds: unknown
Weather: no significant weather observed at this time

Forecast for: UEEE (YAKUTSK , RU)
Text: TAF UEEE 222300Z 2300/2406 30003MPS 9999 SCT030 BKN100
Forecast period: 0000 UTC 23 April 2019 to 0600 UTC 24 April 2019
Forecast type: FROM: standard forecast or significant change
Winds: from the WNW (300 degrees) at 7 MPH (6 knots; 3.1 m/s)
Visibility: 6 or more miles 10+ km)
Ceiling: 10000 feet AGL
Clouds: scattered clouds at 3000 feet AGL
broken clouds at 10000 feet AGL
Weather: no significant weather forecast for this period